Main page
METAR-TAF:

METAR-TAF

Airports :

Maputo, Mozambique

Maputo International Airport

latitude: 25-55S, longitude: 032-34E, elevation: 39 m

Current weather observation

The report was made 34 minutes ago, at 21:00 UTC
Wind 8 kt from the South/Southwest
Temperature 24°C
Humidity 83%
Pressure 1019 hPa
Visibility 10 km or more
Broken clouds at a height of 2000 ft

METAR: FQMA 212100Z 20008KT 9999 BKN020 24/21 Q1019 NOSIG

Time: 23:34 (21:34 UTC)

Forecast

The report was made 5 hours and 34 minutes ago, at 16:00 UTC
Forecast valid from 21 at 18 UTC to 22 at 24 UTC
Wind 12 kt from the South/Southeast
Visibility 10 km or more
Broken clouds at a height of 2000 ft
Becoming
from 21 at 18 UTC to 21 at 20 UTC
Wind 8 kt from the South/Southwest
Becoming
from 22 at 12 UTC to 22 at 14 UTC
Wind 12 kt from the South/Southeast
Scattered clouds at a height of 2000 ft

TAF: FQMA 211600Z 2118/2224 16012KT 9999 BKN020 BECMG 2118/2120 21008KT BECMG 2212/2214 15012KT SCT020 TN20/2202ZTX32/2212Z

Weather observations and forecasts of more than 4000 airports (METAR and TAF reports).

The available stations are represented by yellow and red dots on the map.

Hover mouse over dot to see the name of the station.

Then click to see weather observations and forecasts.

To change the map : click on the green buttons with a black cross to zoom in, on the green button with a dash to zoom out, or on the green arrows for adjacent maps.


METAR-TAF: